Startpagina
METAR-TAF:

METAR-TAF

Vliegvelden :

Luchthaven Stockholm-Bromma

Stockholm, Zweden

breedte: 59-21N, lengte: 017-57E, hoogte: 14 m

Actueel weer

Dit bericht is 31 minuten geleden gemaakt, om 09:50 UTC
Wind 4 kt uit het noordnoordwesten, variërend tussen het westen en het noorden
Temperatuur 18°C
Vochtigheid 68%
Druk 1011 hPa
Zicht 10 km of meer
Weinig wolken op 2300 ft
Gebroken wolken op 3700 ft

METAR: ESSB 170950Z 34004KT 280V010 9999 FEW023 BKN037 18/12 Q1011

Tijdstip: 12:21 (10:21 UTC)

Verwachting

Dit bericht is 1 uur en het 51 minuten geleden gemaakt, om 08:30 UTC
Verwachting geldig van 17 om 09 UTC tot 17 om 18 UTC
Wind 3 kt uit variabele richting
Zicht 10 km of meer
Verspreide wolken op 2000 ft
Kans 40%
van 17 om 11 UTC tot 17 om 16 UTC
Verspreide wolken op 4000 ft, Stapelwolken.

TAF: ESSB 170830Z 1709/1718 VRB03KT 9999 SCT020 PROB40 1711/1716 SCT040TCU

Waarnemingen en weersverwachtingen van meer dan 4000 vliegvelden (METAR en TAF).

De beschikbare stations zijn de gele en rode punten op de kaart.

Ga met uw muis naar het station om de naam te zien.

Klik dan om waarnemingen en weersverwachtingen te zien.

kaart wijzigen: klik op de groene knoppen met een zwart kruis om in te zoomen, op de groene knop met een streepje om uit te zoomen of op de groene pijlen voor aangrenzende kaarten.


METAR-TAF: